Time;durP1;ratioP1;P1;durP2;ratioP2;P2;SDS_P1;SDS_P2;PMS_P1;PMS_P2;Temp;Humidity;BMP_temperature;BMP_pressure;BME280_temperature;BME280_humidity;BME280_pressure;Samples;Min_cycle;Max_cycle;Signal;HPM_P1;HPM_P2
2021/04/14 00:00:30;;;;;;;2.77;2.57;;;2.40;96.70;;;;;;5108090;28;20215;-49
2021/04/14 00:02:56;;;;;;;5.18;3.42;;;2.50;96.70;;;;;;5103656;28;20286;-50
2021/04/14 00:05:26;;;;;;;3.25;2.72;;;2.40;96.00;;;;;;5107225;28;20276;-50
2021/04/14 00:07:51;;;;;;;3.45;2.83;;;2.50;96.60;;;;;;5107380;28;21100;-49
2021/04/14 00:10:25;;;;;;;3.50;2.93;;;2.20;96.70;;;;;;5108562;28;20282;-49
2021/04/14 00:12:50;;;;;;;4.50;2.88;;;2.50;97.40;;;;;;5107438;28;20194;-50
2021/04/14 00:15:20;;;;;;;2.93;2.40;;;2.60;97.30;;;;;;5107424;28;20196;-50
2021/04/14 00:17:45;;;;;;;3.05;2.70;;;2.40;96.60;;;;;;5107915;28;20183;-50
2021/04/14 00:20:12;;;;;;;2.87;2.67;;;2.40;97.10;;;;;;5107858;28;20668;-49
2021/04/14 00:22:39;;;;;;;2.67;2.47;;;2.40;97.20;;;;;;5107885;28;20184;-49
2021/04/14 00:25:05;;;;;;;3.47;2.83;;;2.30;97.10;;;;;;5107910;28;20172;-50
2021/04/14 00:27:35;;;;;;;4.32;2.83;;;2.50;97.20;;;;;;5109577;28;20217;-50
2021/04/14 00:30:01;;;;;;;3.38;2.40;;;2.20;97.30;;;;;;5111941;28;20195;-50
2021/04/14 00:32:26;;;;;;;3.43;2.60;;;2.30;97.50;;;;;;5112193;28;20248;-49
2021/04/14 00:34:52;;;;;;;3.23;2.53;;;2.20;97.40;;;;;;5111853;28;20195;-49
2021/04/14 00:37:18;;;;;;;4.50;3.03;;;2.40;97.60;;;;;;5111395;28;20237;-50
2021/04/14 00:39:44;;;;;;;2.90;2.42;;;2.20;97.50;;;;;;5111585;28;20180;-49
2021/04/14 00:42:10;;;;;;;4.90;2.47;;;2.20;97.60;;;;;;5111245;28;20291;-50
2021/04/14 00:44:36;;;;;;;3.47;2.75;;;2.10;97.30;;;;;;5111164;28;20294;-49
2021/04/14 00:47:01;;;;;;;2.60;2.40;;;2.30;97.60;;;;;;5111311;28;20626;-50
2021/04/14 00:49:28;;;;;;;2.90;2.37;;;2.20;97.60;;;;;;5112229;28;20730;-50
2021/04/14 00:51:54;;;;;;;3.92;2.75;;;2.30;97.90;;;;;;5110724;28;20681;-50
2021/04/14 00:54:19;;;;;;;5.77;2.90;;;2.00;97.90;;;;;;5111225;28;20179;-50
2021/04/14 00:56:45;;;;;;;4.67;2.90;;;2.10;98.00;;;;;;5109960;28;20973;-49
2021/04/14 00:59:11;;;;;;;3.00;2.70;;;2.10;98.00;;;;;;5111180;28;20180;-50
2021/04/14 01:01:36;;;;;;;4.10;2.87;;;2.40;98.30;;;;;;5112747;28;20234;-50
2021/04/14 01:04:02;;;;;;;3.70;2.93;;;2.20;98.10;;;;;;5110895;28;20204;-50
2021/04/14 01:06:29;;;;;;;5.05;2.67;;;2.20;97.70;;;;;;5112841;27;20191;-49
2021/04/14 01:08:55;;;;;;;2.70;2.50;;;2.00;97.80;;;;;;5111615;28;20196;-50
2021/04/14 01:11:23;;;;;;;4.38;3.10;;;2.20;97.90;;;;;;5112594;28;20215;-50
2021/04/14 01:13:49;;;;;;;2.80;2.60;;;2.20;98.00;;;;;;5110830;28;20215;-49
2021/04/14 01:16:15;;;;;;;4.07;2.80;;;2.10;98.10;;;;;;5111302;28;20219;-50
2021/04/14 01:18:41;;;;;;;2.97;2.63;;;2.00;98.10;;;;;;5111039;28;20441;-50
2021/04/14 01:21:12;;;;;;;4.47;2.60;;;2.20;98.40;;;;;;5110982;28;20207;-49
2021/04/14 01:23:38;;;;;;;9.32;3.40;;;1.90;98.30;;;;;;5111835;28;20333;-50
2021/04/14 01:26:04;;;;;;;4.40;2.50;;;1.50;98.10;;;;;;5110773;28;20259;-49
2021/04/14 01:28:34;;;;;;;3.10;2.50;;;2.10;98.10;;;;;;5110417;28;20504;-50
2021/04/14 01:31:01;;;;;;;3.05;2.40;;;2.00;98.20;;;;;;5100643;28;20207;-50
2021/04/14 01:33:31;;;;;;;3.85;2.00;;;2.00;98.70;;;;;;5110742;28;20210;-49
2021/04/14 01:35:58;;;;;;;2.60;2.20;;;1.90;98.60;;;;;;5110270;28;20190;-50
2021/04/14 01:38:23;;;;;;;2.47;2.25;;;2.00;98.30;;;;;;5110176;28;22348;-49
2021/04/14 01:40:49;;;;;;;6.40;2.40;;;1.90;98.30;;;;;;5092274;28;20294;-50
2021/04/14 01:43:15;;;;;;;3.65;2.40;;;1.90;98.40;;;;;;5110009;28;20545;-50
2021/04/14 01:45:44;;;;;;;2.30;2.10;;;1.90;98.60;;;;;;5111368;28;20184;-49
2021/04/14 01:48:11;;;;;;;3.10;2.60;;;1.90;98.40;;;;;;5110538;28;20425;-49
2021/04/14 01:50:40;;;;;;;3.30;2.40;;;1.80;98.70;;;;;;5111493;28;20204;-50
2021/04/14 01:53:08;;;;;;;2.10;2.00;;;1.70;98.50;;;;;;5110219;28;20609;-49
2021/04/14 01:55:34;;;;;;;2.42;2.13;;;1.80;98.60;;;;;;5110272;28;20215;-49
2021/04/14 01:58:00;;;;;;;2.72;2.53;;;1.80;99.20;;;;;;5109878;28;20360;-49
2021/04/14 02:00:33;;;;;;;6.30;2.90;;;1.70;99.10;;;;;;5109898;28;20276;-50
2021/04/14 02:02:59;;;;;;;2.85;2.63;;;1.70;99.20;;;;;;5109976;28;20199;-51
2021/04/14 02:05:30;;;;;;;2.78;2.50;;;1.60;99.30;;;;;;5111999;28;20178;-50
2021/04/14 02:07:56;;;;;;;2.38;2.10;;;1.90;99.70;;;;;;5110288;28;20188;-50
2021/04/14 02:10:24;;;;;;;5.05;2.60;;;1.70;99.40;;;;;;5110242;28;20180;-50
2021/04/14 02:12:50;;;;;;;2.50;2.20;;;1.60;99.10;;;;;;5110447;28;20271;-49
2021/04/14 02:15:20;;;;;;;3.75;2.58;;;1.70;99.60;;;;;;5110187;28;20235;-50
2021/04/14 02:17:45;;;;;;;2.92;2.58;;;1.70;99.60;;;;;;5109768;28;20180;-50
2021/04/14 02:20:12;;;;;;;2.73;2.53;;;1.70;99.50;;;;;;5110113;28;20184;-50
2021/04/14 02:22:38;;;;;;;4.00;2.13;;;1.70;99.70;;;;;;5108668;28;20527;-50
2021/04/14 02:25:06;;;;;;;3.25;2.95;;;1.60;99.50;;;;;;5110054;28;20167;-50
2021/04/14 02:27:32;;;;;;;3.00;2.67;;;1.60;99.90;;;;;;5109449;28;20184;-50
2021/04/14 02:30:00;;;;;;;2.50;2.30;;;1.70;99.90;;;;;;5110717;28;20180;-49
2021/04/14 02:32:25;;;;;;;2.55;2.35;;;1.50;99.90;;;;;;5092425;28;20520;-53
2021/04/14 02:34:51;;;;;;;3.03;2.33;;;1.70;99.90;;;;;;5109375;28;20202;-50
2021/04/14 02:37:17;;;;;;;5.33;2.20;;;1.70;99.90;;;;;;5109687;28;20180;-50
2021/04/14 02:39:42;;;;;;;2.40;2.20;;;1.60;99.90;;;;;;5110024;28;20462;-50
2021/04/14 02:42:08;;;;;;;2.63;2.23;;;1.50;99.90;;;;;;5109015;28;20503;-50
2021/04/14 02:44:34;;;;;;;3.00;2.40;;;1.30;99.90;;;;;;5109649;28;20298;-50
2021/04/14 02:47:00;;;;;;;2.50;2.30;;;1.40;99.90;;;;;;5110425;28;20502;-50
2021/04/14 02:49:25;;;;;;;2.93;2.33;;;1.60;99.90;;;;;;5101897;28;20176;-50
2021/04/14 02:51:51;;;;;;;2.53;2.33;;;1.40;99.90;;;;;;5108537;28;20620;-50
2021/04/14 02:54:18;;;;;;;3.78;2.22;;;1.60;99.90;;;;;;5108744;28;20548;-50
2021/04/14 02:56:44;;;;;;;2.28;2.08;;;1.60;99.90;;;;;;5108390;28;20190;-49
2021/04/14 02:59:09;;;;;;;2.87;2.13;;;1.50;99.90;;;;;;5107942;28;20187;-49
2021/04/14 03:01:35;;;;;;;5.43;2.30;;;1.60;99.90;;;;;;5109117;28;20210;-50
2021/04/14 03:04:01;;;;;;;2.63;2.43;;;1.70;99.90;;;;;;5108857;28;20564;-50
2021/04/14 03:06:26;;;;;;;3.13;2.60;;;1.50;99.90;;;;;;5108662;28;20274;-50
2021/04/14 03:08:52;;;;;;;3.17;2.13;;;1.60;99.90;;;;;;5108579;28;20233;-50
2021/04/14 03:11:17;;;;;;;2.47;2.00;;;1.70;99.90;;;;;;5108137;28;20202;-50
2021/04/14 03:13:43;;;;;;;1.93;1.80;;;1.50;99.90;;;;;;5108135;28;20274;-50
2021/04/14 03:16:12;;;;;;;2.50;2.30;;;1.40;99.90;;;;;;5110031;28;20563;-50
2021/04/14 03:18:38;;;;;;;3.25;2.10;;;1.40;99.90;;;;;;5108889;28;20244;-50
2021/04/14 03:21:04;;;;;;;2.40;2.20;;;1.40;99.90;;;;;;5108061;28;20204;-50
2021/04/14 03:23:30;;;;;;;3.28;2.15;;;1.50;99.90;;;;;;5108309;28;20303;-50
2021/04/14 03:25:55;;;;;;;2.70;2.40;;;1.30;99.90;;;;;;5108184;28;20270;-50
2021/04/14 03:28:21;;;;;;;3.73;2.63;;;1.30;99.90;;;;;;5108181;28;20438;-50
2021/04/14 03:30:47;;;;;;;2.73;2.00;;;1.30;99.90;;;;;;5107788;28;20697;-49
2021/04/14 03:33:12;;;;;;;2.70;2.50;;;1.30;99.90;;;;;;5107827;28;20176;-49
2021/04/14 03:35:38;;;;;;;2.10;1.90;;;0.60;99.90;;;;;;5108491;28;20188;-50
2021/04/14 03:38:04;;;;;;;2.22;2.03;;;1.30;99.90;;;;;;5108151;28;20421;-50
2021/04/14 03:40:30;;;;;;;3.73;2.27;;;1.20;99.90;;;;;;5109115;28;20215;-49
2021/04/14 03:42:57;;;;;;;2.80;1.98;;;1.30;99.90;;;;;;5108953;28;20214;-49
2021/04/14 03:45:31;;;;;;;3.65;2.58;;;1.30;99.90;;;;;;5091331;28;20179;-49
2021/04/14 03:47:57;;;;;;;5.43;2.45;;;1.20;99.90;;;;;;5107668;28;20239;-50
2021/04/14 03:50:24;;;;;;;2.65;2.15;;;1.40;99.90;;;;;;5101406;28;20172;-50
2021/04/14 03:52:50;;;;;;;4.10;2.70;;;1.80;99.90;;;;;;5107714;28;20179;-50
2021/04/14 03:55:21;;;;;;;4.28;2.45;;;1.40;99.90;;;;;;5108225;28;20187;-49
2021/04/14 03:57:46;;;;;;;2.92;2.60;;;1.00;99.90;;;;;;5107788;28;20203;-50
2021/04/14 04:00:14;;;;;;;3.13;2.33;;;1.30;99.90;;;;;;5107794;28;20260;-50
2021/04/14 04:02:40;;;;;;;3.35;2.53;;;1.30;99.90;;;;;;5108522;28;20195;-50
2021/04/14 04:05:08;;;;;;;3.22;2.00;;;1.10;99.90;;;;;;5111882;28;20180;-50
2021/04/14 04:07:33;;;;;;;2.97;2.28;;;1.10;99.90;;;;;;5111612;28;20187;-50
2021/04/14 04:09:59;;;;;;;4.10;2.80;;;1.00;99.90;;;;;;5111196;28;20711;-50
2021/04/14 04:12:25;;;;;;;3.00;2.70;;;1.20;99.90;;;;;;5107777;28;20195;-49
2021/04/14 04:14:51;;;;;;;3.30;2.53;;;1.20;99.90;;;;;;5111231;28;20248;-49
2021/04/14 04:17:19;;;;;;;3.03;2.72;;;1.10;99.90;;;;;;5111953;28;20433;-50
2021/04/14 04:19:47;;;;;;;4.40;2.80;;;1.10;99.90;;;;;;5112785;28;20283;-49
2021/04/14 04:22:14;;;;;;;2.50;2.30;;;1.00;99.90;;;;;;5112280;28;20341;-49
2021/04/14 04:24:40;;;;;;;3.47;2.33;;;1.30;99.90;;;;;;5112126;28;20211;-49
2021/04/14 04:27:06;;;;;;;5.27;3.40;;;1.10;99.90;;;;;;5112416;28;20209;-49
2021/04/14 04:29:31;;;;;;;6.47;2.75;;;1.10;99.90;;;;;;5109246;28;20748;-50
2021/04/14 04:31:57;;;;;;;2.60;2.40;;;0.90;99.90;;;;;;5111575;28;20207;-50
2021/04/14 04:34:23;;;;;;;3.27;2.23;;;1.40;99.90;;;;;;5111812;28;20494;-51
2021/04/14 04:36:50;;;;;;;6.10;2.90;;;1.10;99.90;;;;;;5112405;28;20646;-50
2021/04/14 04:39:16;;;;;;;2.80;2.40;;;1.00;99.90;;;;;;5104554;28;20184;-52
2021/04/14 04:41:42;;;;;;;5.25;2.80;;;1.30;99.90;;;;;;5105184;28;20802;-50
2021/04/14 04:44:08;;;;;;;4.40;3.10;;;1.00;99.90;;;;;;5108763;28;20321;-50
2021/04/14 04:46:33;;;;;;;3.00;2.60;;;1.10;99.90;;;;;;5107900;28;20243;-49
2021/04/14 04:48:59;;;;;;;4.17;2.43;;;1.00;99.90;;;;;;5108409;28;20187;-50
2021/04/14 04:51:24;;;;;;;5.63;2.80;;;0.50;99.90;;;;;;5101979;28;20211;-50
2021/04/14 04:53:50;;;;;;;5.70;3.00;;;1.20;99.90;;;;;;5105882;28;20707;-52
2021/04/14 04:56:17;;;;;;;5.23;2.77;;;1.20;99.90;;;;;;5104534;27;20535;-52
2021/04/14 04:58:43;;;;;;;2.88;2.20;;;1.00;99.90;;;;;;5109447;28;20218;-51
2021/04/14 05:01:09;;;;;;;2.97;2.60;;;1.10;99.90;;;;;;5111758;27;20753;-51
2021/04/14 05:03:35;;;;;;;3.08;2.78;;;1.00;99.90;;;;;;5104036;28;20211;-52
2021/04/14 05:06:01;;;;;;;4.50;3.03;;;1.20;99.90;;;;;;5106747;28;20175;-51
2021/04/14 05:08:27;;;;;;;5.13;3.83;;;1.10;99.90;;;;;;5099465;28;20204;-51
2021/04/14 05:10:53;;;;;;;3.97;3.15;;;1.10;99.90;;;;;;5102167;27;20291;-52
2021/04/14 05:13:20;;;;;;;3.55;2.75;;;1.10;99.90;;;;;;5107687;28;20527;-53
2021/04/14 05:15:45;;;;;;;4.07;3.40;;;1.10;99.90;;;;;;5111005;27;20196;-51
2021/04/14 05:18:11;;;;;;;3.10;2.70;;;0.40;99.90;;;;;;5106143;27;20191;-54
2021/04/14 05:20:38;;;;;;;7.43;2.43;;;1.20;99.90;;;;;;5106227;27;20521;-54
2021/04/14 05:23:05;;;;;;;5.97;3.58;;;1.20;99.90;;;;;;5106587;27;20204;-53
2021/04/14 05:25:33;;;;;;;6.07;2.95;;;1.30;99.90;;;;;;5107447;27;20501;-53
2021/04/14 05:28:09;;;;;;;2.90;2.45;;;1.40;99.90;;;;;;5109327;28;20172;-53
2021/04/14 05:30:36;;;;;;;4.45;3.00;;;1.30;99.90;;;;;;5101050;28;20218;-52
2021/04/14 05:33:03;;;;;;;4.60;3.30;;;1.60;99.90;;;;;;5102950;27;20190;-53
2021/04/14 05:35:28;;;;;;;5.60;3.08;;;1.50;99.90;;;;;;5107314;27;20610;-54
2021/04/14 05:37:54;;;;;;;4.10;3.07;;;1.40;99.90;;;;;;5105788;27;20218;-50
2021/04/14 05:40:22;;;;;;;6.83;3.00;;;1.50;99.90;;;;;;5115210;27;20265;-50
2021/04/14 05:42:48;;;;;;;4.20;3.08;;;1.60;99.90;;;;;;5099681;27;20726;-50
2021/04/14 05:45:20;;;;;;;4.88;3.13;;;1.50;99.90;;;;;;5100762;27;20179;-50
2021/04/14 05:47:45;;;;;;;5.80;3.03;;;1.80;99.90;;;;;;5107628;28;20176;-50
2021/04/14 05:50:14;;;;;;;6.80;3.80;;;1.60;99.90;;;;;;5096757;27;20190;-50
2021/04/14 05:52:40;;;;;;;4.90;3.25;;;1.70;99.90;;;;;;5107528;28;20198;-50
2021/04/14 05:55:06;;;;;;;5.17;4.07;;;2.00;99.90;;;;;;5109274;28;20175;-50
2021/04/14 05:57:32;;;;;;;9.93;3.25;;;2.10;99.90;;;;;;5109351;28;20663;-50
2021/04/14 05:59:57;;;;;;;6.20;3.07;;;1.90;99.90;;;;;;5109249;28;20176;-50
2021/04/14 06:02:23;;;;;;;4.83;3.60;;;2.30;99.90;;;;;;5109442;28;20717;-49
2021/04/14 06:04:51;;;;;;;8.97;4.07;;;2.40;99.90;;;;;;5104671;28;20253;-50
2021/04/14 06:07:17;;;;;;;7.00;3.80;;;2.60;99.90;;;;;;5109106;27;20194;-50
2021/04/14 06:09:44;;;;;;;10.73;4.57;;;2.90;99.90;;;;;;5096113;27;20180;-51
2021/04/14 06:12:10;;;;;;;4.75;3.88;;;3.10;99.60;;;;;;5102923;27;20649;-50
2021/04/14 06:14:36;;;;;;;4.80;3.72;;;3.20;99.10;;;;;;5091965;28;20227;-51
2021/04/14 06:17:02;;;;;;;5.50;3.70;;;3.30;98.60;;;;;;5107167;28;20222;-53
2021/04/14 06:19:27;;;;;;;4.38;3.95;;;3.40;97.80;;;;;;5098735;28;20195;-52
2021/04/14 06:21:53;;;;;;;6.23;4.20;;;3.80;97.60;;;;;;5103990;28;20212;-53
2021/04/14 06:24:19;;;;;;;4.00;3.67;;;4.00;96.70;;;;;;5107505;28;20204;-50
2021/04/14 06:29:10;;;;;;;5.70;4.10;;;4.20;95.80;;;;;;5109366;28;20222;-51
2021/04/14 06:31:42;;;;;;;4.90;3.63;;;4.70;95.60;;;;;;5108137;27;20211;-50
2021/04/14 06:34:20;;;;;;;27.20;22.95;;;4.70;95.20;;;;;;5093444;28;20243;-52
2021/04/14 06:36:48;;;;;;;5.45;4.90;;;4.90;94.30;;;;;;5100564;28;20279;-51
2021/04/14 06:39:16;;;;;;;7.60;5.03;;;5.10;93.90;;;;;;5102738;28;20184;-51
2021/04/14 06:44:22;;;;;;;6.35;5.43;;;5.40;93.10;;;;;;5105944;28;20212;-51
2021/04/14 06:46:53;;;;;;;7.03;5.60;;;6.20;91.30;;;;;;5102950;28;20201;-51
2021/04/14 06:49:26;;;;;;;7.47;5.40;;;6.70;89.90;;;;;;5108020;28;20309;-52
2021/04/14 06:51:58;;;;;;;8.68;5.63;;;6.70;88.00;;;;;;5109735;28;20198;-51
2021/04/14 06:54:32;;;;;;;5.70;5.20;;;6.90;87.10;;;;;;5104164;28;20184;-53
2021/04/14 06:57:01;;;;;;;9.32;6.30;;;7.20;86.90;;;;;;5105322;28;20192;-53
2021/04/14 06:59:31;;;;;;;7.85;5.68;;;7.20;85.80;;;;;;5106344;28;20616;-53
2021/04/14 07:02:10;;;;;;;10.88;6.78;;;7.60;85.50;;;;;;5103919;28;20200;-50
2021/04/14 07:04:52;;;;;;;6.80;6.10;;;7.50;84.10;;;;;;5120822;27;20209;-51
2021/04/14 07:07:27;;;;;;;10.23;6.72;;;7.50;83.50;;;;;;5098817;28;20699;-51
2021/04/14 07:10:00;;;;;;;9.52;6.10;;;7.40;82.70;;;;;;5102842;28;20183;-52
2021/04/14 07:12:26;;;;;;;9.88;6.72;;;7.80;83.10;;;;;;5100378;28;20198;-48
2021/04/14 07:14:57;;;;;;;7.00;6.20;;;7.90;81.80;;;;;;5106264;28;20673;-50
2021/04/14 07:17:41;;;;;;;8.55;6.22;;;7.60;81.20;;;;;;5101770;28;20441;-50
2021/04/14 07:20:15;;;;;;;8.52;7.25;;;7.70;81.70;;;;;;5103824;27;21116;-54
2021/04/14 07:23:00;;;;;;;9.98;6.05;;;8.10;81.80;;;;;;5104591;28;20184;-53
2021/04/14 07:25:42;;;;;;;6.68;6.05;;;8.40;80.30;;;;;;5106853;28;20641;-57
2021/04/14 07:28:34;;;;;;;6.65;6.05;;;8.60;79.90;;;;;;5108736;28;20733;-53
2021/04/14 07:31:18;;;;;;;7.63;6.70;;;8.20;80.50;;;;;;5098897;28;20204;-53
2021/04/14 07:34:02;;;;;;;8.05;5.68;;;9.10;78.10;;;;;;5099017;28;20176;-54
2021/04/14 07:36:40;;;;;;;8.77;6.63;;;9.60;75.40;;;;;;5092861;28;20288;-53
2021/04/14 07:39:19;;;;;;;6.57;5.97;;;10.60;72.30;;;;;;5108103;28;20205;-53
2021/04/14 07:42:10;;;;;;;8.45;6.10;;;10.40;68.80;;;;;;5105070;28;20199;-51
2021/04/14 07:45:09;;;;;;;7.97;6.70;;;9.60;70.10;;;;;;5105736;28;20200;-52
2021/04/14 07:47:38;;;;;;;8.35;6.55;;;9.50;73.00;;;;;;5107659;28;20199;-51
2021/04/14 07:50:04;;;;;;;7.68;6.35;;;10.10;71.50;;;;;;5104588;28;20193;-54
2021/04/14 07:52:31;;;;;;;6.60;5.53;;;11.90;67.70;;;;;;5106587;28;20229;-53
2021/04/14 07:54:57;;;;;;;10.07;6.28;;;12.70;61.80;;;;;;5105883;28;20630;-54
2021/04/14 07:57:37;;;;;;;7.57;5.87;;;13.70;58.00;;;;;;5105910;28;20211;-54
2021/04/14 08:00:15;;;;;;;7.75;6.50;;;16.10;53.90;;;;;;5103945;28;20183;-54
2021/04/14 08:02:42;;;;;;;9.00;7.05;;;16.70;49.40;;;;;;5100718;28;20193;-54
2021/04/14 08:05:30;;;;;;;4.90;4.50;;;16.40;50.40;;;;;;5107292;28;20223;-55
2021/04/14 08:07:56;;;;;;;5.72;4.38;;;18.50;46.60;;;;;;5123403;28;20271;-53
2021/04/14 08:10:24;;;;;;;4.23;3.80;;;17.40;44.90;;;;;;5104754;28;20275;-55
2021/04/14 08:12:59;;;;;;;4.72;3.88;;;17.90;45.10;;;;;;5105651;28;20198;-55
2021/04/14 08:15:42;;;;;;;4.80;3.70;;;17.80;44.90;;;;;;5103533;28;20560;-55
2021/04/14 08:18:16;;;;;;;4.22;3.70;;;16.90;45.70;;;;;;5100742;28;20218;-55
2021/04/14 08:20:45;;;;;;;5.43;4.18;;;17.90;45.00;;;;;;5098419;28;20233;-55
2021/04/14 08:23:13;;;;;;;4.80;4.40;;;18.90;44.60;;;;;;5110087;28;20269;-53
2021/04/14 08:25:51;;;;;;;5.15;4.50;;;16.90;45.40;;;;;;5095625;28;20183;-55
2021/04/14 08:28:37;;;;;;;3.95;3.60;;;18.60;45.00;;;;;;5119126;28;20179;-55
2021/04/14 08:31:35;;;;;;;4.25;3.95;;;19.30;41.90;;;;;;5095167;28;20304;-55
2021/04/14 08:34:14;;;;;;;3.88;3.58;;;19.50;40.60;;;;;;5103124;28;20530;-55
2021/04/14 08:36:53;;;;;;;5.10;4.40;;;17.70;42.30;;;;;;5099846;28;20688;-53
2021/04/14 08:39:27;;;;;;;7.78;4.45;;;17.50;44.90;;;;;;5103565;28;20179;-54
2021/04/14 08:42:06;;;;;;;4.10;3.70;;;18.80;42.40;;;;;;5106551;28;20681;-54
2021/04/14 08:44:34;;;;;;;5.05;3.80;;;18.60;41.90;;;;;;5099988;28;20211;-52
2021/04/14 08:47:12;;;;;;;4.47;4.07;;;17.60;43.20;;;;;;5104606;28;20361;-52
2021/04/14 08:49:39;;;;;;;6.65;4.20;;;18.30;43.20;;;;;;5108839;28;20191;-52
2021/04/14 08:52:08;;;;;;;5.30;4.15;;;19.60;42.50;;;;;;5107618;28;20214;-55
2021/04/14 08:54:35;;;;;;;5.00;3.60;;;19.10;40.10;;;;;;5109983;28;20179;-55
2021/04/14 08:57:02;;;;;;;4.32;3.20;;;19.30;40.50;;;;;;5110328;28;20292;-54
2021/04/14 08:59:28;;;;;;;4.18;3.63;;;19.70;40.30;;;;;;5107950;28;20187;-55
2021/04/14 09:01:54;;;;;;;4.83;3.70;;;20.20;39.10;;;;;;5111098;28;20203;-54
2021/04/14 09:04:21;;;;;;;3.30;2.90;;;20.30;37.90;;;;;;5107797;28;20207;-54
2021/04/14 09:06:49;;;;;;;5.78;3.80;;;20.10;37.80;;;;;;5103095;28;21062;-54
2021/04/14 09:09:18;;;;;;;4.20;3.50;;;19.80;38.30;;;;;;5111001;28;20180;-54
2021/04/14 09:11:45;;;;;;;5.28;4.80;;;18.50;38.50;;;;;;5109858;28;20626;-50
2021/04/14 09:14:23;;;;;;;4.07;3.70;;;18.10;40.90;;;;;;5109477;28;20342;-51
2021/04/14 09:16:52;;;;;;;4.78;4.10;;;18.60;40.70;;;;;;5127546;27;20183;-56
2021/04/14 09:19:40;;;;;;;5.20;4.03;;;17.60;40.50;;;;;;5105459;28;20180;-53
2021/04/14 09:22:17;;;;;;;4.35;3.03;;;17.60;41.50;;;;;;5105858;28;20196;-52
2021/04/14 09:24:45;;;;;;;5.00;3.80;;;17.20;41.70;;;;;;5109272;28;20257;-53
2021/04/14 09:27:25;;;;;;;4.60;4.05;;;16.30;42.00;;;;;;5109425;28;20186;-53
2021/04/14 09:30:02;;;;;;;5.15;3.65;;;16.10;43.60;;;;;;5101816;28;20198;-52
2021/04/14 09:32:37;;;;;;;5.93;4.55;;;16.10;44.30;;;;;;5107076;28;20442;-54
2021/04/14 09:35:16;;;;;;;7.35;4.55;;;15.30;43.70;;;;;;5116823;27;20530;-49
2021/04/14 09:37:42;;;;;;;3.78;3.40;;;14.90;45.90;;;;;;5106937;28;20298;-53
2021/04/14 09:40:10;;;;;;;4.20;3.55;;;15.20;46.00;;;;;;5103125;28;20546;-54
2021/04/14 09:42:42;;;;;;;4.32;3.70;;;15.00;45.50;;;;;;5109690;28;20242;-52
2021/04/14 09:45:35;;;;;;;4.57;3.70;;;15.90;45.90;;;;;;5106192;28;20321;-52
2021/04/14 09:48:15;;;;;;;5.00;4.50;;;16.40;43.20;;;;;;5098713;28;20190;-53
2021/04/14 09:50:44;;;;;;;3.42;3.13;;;17.10;42.70;;;;;;5101075;28;20226;-53
2021/04/14 09:53:23;;;;;;;3.35;3.08;;;16.60;40.10;;;;;;5108459;28;20191;-54
2021/04/14 09:56:20;;;;;;;3.97;3.58;;;15.50;42.40;;;;;;5106786;28;20176;-53
2021/04/14 09:58:57;;;;;;;3.90;3.55;;;16.60;42.00;;;;;;5107062;28;20268;-53
2021/04/14 10:01:33;;;;;;;3.35;3.05;;;15.70;42.80;;;;;;5100655;28;20283;-52
2021/04/14 10:04:02;;;;;;;4.68;3.72;;;16.00;42.60;;;;;;5103898;28;20211;-54
2021/04/14 10:06:29;;;;;;;2.60;2.30;;;15.60;43.50;;;;;;5108522;28;20184;-53
2021/04/14 10:09:01;;;;;;;2.67;2.20;;;15.40;41.50;;;;;;5108876;28;20179;-52
2021/04/14 10:11:32;;;;;;;2.30;2.10;;;15.00;39.80;;;;;;5103254;28;20196;-52
2021/04/14 10:14:11;;;;;;;3.42;2.78;;;14.70;39.80;;;;;;5107088;28;20270;-52
2021/04/14 10:16:37;;;;;;;5.38;2.72;;;13.80;42.00;;;;;;5107408;28;20210;-51
2021/04/14 10:19:06;;;;;;;4.57;3.00;;;13.40;43.50;;;;;;5108861;28;20218;-52
2021/04/14 10:21:35;;;;;;;3.63;3.20;;;12.60;44.00;;;;;;5100979;28;20451;-53
2021/04/14 10:24:06;;;;;;;2.92;2.58;;;12.20;45.30;;;;;;5124374;27;20583;-56
2021/04/14 10:26:34;;;;;;;4.45;2.80;;;12.30;46.00;;;;;;5109506;28;20613;-53
2021/04/14 10:29:04;;;;;;;4.55;3.25;;;11.60;45.40;;;;;;5107271;28;20177;-53
2021/04/14 10:31:30;;;;;;;3.03;2.60;;;11.20;46.70;;;;;;5086090;28;20226;-53
2021/04/14 10:34:07;;;;;;;5.10;2.40;;;11.40;46.90;;;;;;5107024;28;20188;-54
2021/04/14 10:36:42;;;;;;;4.47;2.75;;;11.40;45.80;;;;;;5098731;28;20473;-53
2021/04/14 10:39:24;;;;;;;3.05;2.15;;;11.40;44.60;;;;;;5101920;28;20240;-56
2021/04/14 10:41:50;;;;;;;4.32;4.03;;;11.40;46.20;;;;;;5100661;28;20215;-54
2021/04/14 10:44:21;;;;;;;3.37;3.07;;;11.90;50.50;;;;;;5090926;28;20628;-55
2021/04/14 10:46:48;;;;;;;3.65;3.10;;;12.10;50.60;;;;;;5103670;28;20281;-55
2021/04/14 10:49:28;;;;;;;3.00;2.53;;;12.30;50.40;;;;;;5105728;28;20185;-55
2021/04/14 10:51:56;;;;;;;4.07;3.00;;;13.00;50.00;;;;;;5107044;28;20219;-54
2021/04/14 10:54:30;;;;;;;8.25;3.50;;;12.50;49.80;;;;;;5106843;28;20184;-54
2021/04/14 10:57:02;;;;;;;3.03;2.83;;;12.10;50.40;;;;;;5105547;28;20671;-54
2021/04/14 10:59:29;;;;;;;3.10;2.80;;;10.90;51.40;;;;;;5107991;28;20594;-54
2021/04/14 11:01:56;;;;;;;6.60;3.17;;;10.80;52.80;;;;;;5098520;28;20260;-53
2021/04/14 11:04:52;;;;;;;3.40;3.10;;;9.90;53.30;;;;;;5107083;28;20803;-51
2021/04/14 11:07:22;;;;;;;3.97;3.40;;;10.00;54.20;;;;;;5090798;28;20262;-51
2021/04/14 11:09:50;;;;;;;3.22;3.03;;;9.60;54.10;;;;;;5109302;28;20179;-51
2021/04/14 11:12:19;;;;;;;3.38;3.08;;;9.60;54.30;;;;;;5104439;28;20604;-53
2021/04/14 11:14:50;;;;;;;4.13;3.35;;;9.40;54.30;;;;;;5106180;28;20180;-51
2021/04/14 11:17:28;;;;;;;5.00;3.35;;;10.50;54.20;;;;;;5105051;28;20196;-51
2021/04/14 11:20:15;;;;;;;3.97;3.30;;;11.00;53.20;;;;;;5107587;28;20273;-51
2021/04/14 11:22:55;;;;;;;3.17;2.90;;;11.40;50.70;;;;;;5103515;28;20654;-51
2021/04/14 11:25:31;;;;;;;3.25;2.95;;;11.70;48.60;;;;;;5107291;28;20261;-50
2021/04/14 11:28:13;;;;;;;5.20;3.67;;;11.60;48.50;;;;;;5104642;28;20803;-51
2021/04/14 11:30:56;;;;;;;3.40;3.20;;;12.10;49.40;;;;;;5102735;28;20225;-54
2021/04/14 11:33:44;;;;;;;3.90;3.60;;;12.50;47.50;;;;;;5108226;28;20186;-52
2021/04/14 11:36:26;;;;;;;4.22;3.22;;;12.20;46.20;;;;;;5104399;28;20204;-54
2021/04/14 11:38:59;;;;;;;4.47;3.17;;;12.40;47.00;;;;;;5101999;28;20261;-52
2021/04/14 11:41:34;;;;;;;3.40;3.10;;;12.70;46.30;;;;;;5105913;28;20195;-53
2021/04/14 11:44:01;;;;;;;3.60;3.30;;;13.00;45.70;;;;;;5101902;28;20210;-53
2021/04/14 11:46:36;;;;;;;4.20;3.42;;;13.10;46.20;;;;;;5108254;28;20497;-54
2021/04/14 11:49:08;;;;;;;4.85;2.90;;;12.90;47.00;;;;;;5104302;28;20209;-54
2021/04/14 11:51:43;;;;;;;4.97;2.88;;;12.60;47.70;;;;;;5104856;28;20235;-53
2021/04/14 11:54:30;;;;;;;3.80;3.40;;;12.30;48.00;;;;;;5107595;28;20173;-53
2021/04/14 11:57:24;;;;;;;3.38;3.08;;;12.30;47.50;;;;;;5102011;28;20276;-52
2021/04/14 12:00:07;;;;;;;4.72;3.42;;;11.90;48.40;;;;;;5089428;28;20260;-54
2021/04/14 12:02:37;;;;;;;5.22;2.80;;;12.00;49.10;;;;;;5105342;28;20717;-55
2021/04/14 12:05:07;;;;;;;2.83;2.55;;;12.40;48.10;;;;;;5108327;28;20260;-52
2021/04/14 12:07:33;;;;;;;2.75;2.55;;;12.30;46.90;;;;;;5106957;28;20517;-55
2021/04/14 12:09:59;;;;;;;3.20;2.90;;;12.40;46.90;;;;;;5097324;28;20837;-55
2021/04/14 12:12:25;;;;;;;3.80;3.40;;;11.80;48.00;;;;;;5101425;28;20207;-52
2021/04/14 12:14:51;;;;;;;3.40;3.10;;;12.10;48.70;;;;;;5107583;28;20666;-52
2021/04/14 12:17:17;;;;;;;4.38;3.03;;;12.10;48.50;;;;;;5107644;28;20201;-54
2021/04/14 12:19:45;;;;;;;3.38;3.08;;;12.40;48.30;;;;;;5098868;28;20190;-51
2021/04/14 12:22:12;;;;;;;3.53;3.17;;;12.60;48.30;;;;;;5097912;28;20251;-54
2021/04/14 12:24:38;;;;;;;9.25;6.20;;;12.00;47.70;;;;;;5105033;28;20216;-54
2021/04/14 12:27:04;;;;;;;3.37;3.07;;;12.30;46.80;;;;;;5110798;28;20174;-53
2021/04/14 12:29:30;;;;;;;2.90;2.70;;;12.20;46.60;;;;;;5111471;28;20247;-53
2021/04/14 12:31:56;;;;;;;4.00;2.63;;;12.40;47.20;;;;;;5109983;28;20212;-54
2021/04/14 12:34:22;;;;;;;4.95;3.00;;;12.10;47.00;;;;;;5103188;28;20431;-54
2021/04/14 12:36:48;;;;;;;6.00;3.23;;;12.30;51.00;;;;;;5101076;28;20188;-54
2021/04/14 12:39:15;;;;;;;4.90;2.90;;;11.90;53.80;;;;;;5108810;28;20495;-53
2021/04/14 12:41:40;;;;;;;3.38;3.00;;;11.30;54.80;;;;;;5105824;28;20492;-53
2021/04/14 12:44:07;;;;;;;3.97;2.93;;;11.70;56.40;;;;;;5103866;28;20462;-53
2021/04/14 12:46:39;;;;;;;3.30;3.00;;;11.90;56.90;;;;;;5108116;28;20249;-54
2021/04/14 12:49:06;;;;;;;7.03;2.92;;;11.90;56.60;;;;;;5106822;28;20177;-53
2021/04/14 12:51:47;;;;;;;3.60;3.30;;;11.80;54.80;;;;;;5102601;28;20719;-54
2021/04/14 12:54:32;;;;;;;3.58;3.28;;;11.20;55.60;;;;;;5108004;28;20222;-55
2021/04/14 12:57:07;;;;;;;3.35;3.15;;;11.50;55.70;;;;;;5097765;28;20273;-55
2021/04/14 12:59:46;;;;;;;3.72;3.40;;;11.50;55.70;;;;;;5110018;28;20623;-54
2021/04/14 13:02:36;;;;;;;3.80;3.50;;;11.70;55.60;;;;;;5107817;28;20220;-55
2021/04/14 13:05:08;;;;;;;3.05;2.75;;;11.40;55.70;;;;;;5106000;28;20555;-52
2021/04/14 13:07:49;;;;;;;3.20;2.92;;;11.30;56.00;;;;;;5105737;28;20655;-53
2021/04/14 13:10:17;;;;;;;3.80;3.25;;;11.20;56.20;;;;;;5110507;28;20188;-54
2021/04/14 13:12:43;;;;;;;3.53;3.22;;;10.70;56.80;;;;;;5104374;28;20174;-53